sensor_id;sensor_type;location;lat;lon;timestamp;P1;durP1;ratioP1;P2;durP2;ratioP2
37299;SDS011;23184;51.902;12.836;2022-07-29T00:00:59;3.85;;;1.50;;
37299;SDS011;23184;51.902;12.836;2022-07-29T00:03:25;4.93;;;1.50;;
37299;SDS011;23184;51.902;12.836;2022-07-29T00:05:50;7.30;;;1.67;;
37299;SDS011;23184;51.902;12.836;2022-07-29T00:08:17;4.97;;;1.60;;
37299;SDS011;23184;51.902;12.836;2022-07-29T00:10:43;6.10;;;1.40;;
37299;SDS011;23184;51.902;12.836;2022-07-29T00:13:09;6.05;;;1.42;;
37299;SDS011;23184;51.902;12.836;2022-07-29T00:15:34;4.22;;;1.70;;
37299;SDS011;23184;51.902;12.836;2022-07-29T00:18:00;5.70;;;1.58;;
37299;SDS011;23184;51.902;12.836;2022-07-29T00:20:25;5.75;;;1.65;;
37299;SDS011;23184;51.902;12.836;2022-07-29T00:22:51;4.43;;;1.40;;
37299;SDS011;23184;51.902;12.836;2022-07-29T00:25:16;6.15;;;2.05;;
37299;SDS011;23184;51.902;12.836;2022-07-29T00:27:42;7.07;;;1.83;;
37299;SDS011;23184;51.902;12.836;2022-07-29T00:30:08;6.82;;;1.70;;
37299;SDS011;23184;51.902;12.836;2022-07-29T00:32:33;5.50;;;1.65;;
37299;SDS011;23184;51.902;12.836;2022-07-29T00:34:59;5.32;;;1.60;;
37299;SDS011;23184;51.902;12.836;2022-07-29T00:37:43;3.85;;;1.27;;
37299;SDS011;23184;51.902;12.836;2022-07-29T00:40:09;2.05;;;1.02;;
37299;SDS011;23184;51.902;12.836;2022-07-29T00:42:44;3.70;;;1.50;;
37299;SDS011;23184;51.902;12.836;2022-07-29T00:45:11;7.78;;;2.30;;
37299;SDS011;23184;51.902;12.836;2022-07-29T00:47:38;5.10;;;1.48;;
37299;SDS011;23184;51.902;12.836;2022-07-29T00:50:04;7.80;;;1.90;;
37299;SDS011;23184;51.902;12.836;2022-07-29T00:52:30;5.50;;;1.30;;
37299;SDS011;23184;51.902;12.836;2022-07-29T00:54:57;4.95;;;1.48;;
37299;SDS011;23184;51.902;12.836;2022-07-29T00:57:22;8.70;;;1.60;;
37299;SDS011;23184;51.902;12.836;2022-07-29T00:59:48;3.00;;;1.70;;
37299;SDS011;23184;51.902;12.836;2022-07-29T01:02:13;7.65;;;1.90;;
37299;SDS011;23184;51.902;12.836;2022-07-29T01:04:39;10.38;;;1.88;;
37299;SDS011;23184;51.902;12.836;2022-07-29T01:07:05;10.05;;;2.05;;
37299;SDS011;23184;51.902;12.836;2022-07-29T01:09:31;9.95;;;1.75;;
37299;SDS011;23184;51.902;12.836;2022-07-29T01:11:57;4.22;;;1.48;;
37299;SDS011;23184;51.902;12.836;2022-07-29T01:14:24;5.32;;;1.70;;
37299;SDS011;23184;51.902;12.836;2022-07-29T01:17:08;8.80;;;1.70;;
37299;SDS011;23184;51.902;12.836;2022-07-29T01:19:58;6.72;;;1.42;;
37299;SDS011;23184;51.902;12.836;2022-07-29T01:22:35;6.20;;;1.50;;
37299;SDS011;23184;51.902;12.836;2022-07-29T01:28:17;6.38;;;2.05;;
37299;SDS011;23184;51.902;12.836;2022-07-29T01:31:06;9.48;;;1.70;;
37299;SDS011;23184;51.902;12.836;2022-07-29T01:33:36;5.40;;;1.50;;
37299;SDS011;23184;51.902;12.836;2022-07-29T01:36:16;6.50;;;1.90;;
37299;SDS011;23184;51.902;12.836;2022-07-29T01:38:45;7.85;;;2.08;;
37299;SDS011;23184;51.902;12.836;2022-07-29T01:41:19;4.90;;;1.75;;
37299;SDS011;23184;51.902;12.836;2022-07-29T01:46:19;4.18;;;1.92;;
37299;SDS011;23184;51.902;12.836;2022-07-29T01:49:00;5.97;;;1.70;;
37299;SDS011;23184;51.902;12.836;2022-07-29T01:51:35;2.97;;;1.52;;
37299;SDS011;23184;51.902;12.836;2022-07-29T01:54:08;6.38;;;1.65;;
37299;SDS011;23184;51.902;12.836;2022-07-29T01:56:42;9.32;;;1.95;;
37299;SDS011;23184;51.902;12.836;2022-07-29T01:59:10;9.18;;;2.10;;
37299;SDS011;23184;51.902;12.836;2022-07-29T02:01:36;3.28;;;1.70;;
37299;SDS011;23184;51.902;12.836;2022-07-29T02:04:04;8.10;;;1.80;;
37299;SDS011;23184;51.902;12.836;2022-07-29T02:06:33;4.22;;;1.80;;
37299;SDS011;23184;51.902;12.836;2022-07-29T02:09:02;6.65;;;1.73;;
37299;SDS011;23184;51.902;12.836;2022-07-29T02:11:29;4.80;;;1.80;;
37299;SDS011;23184;51.902;12.836;2022-07-29T02:13:58;8.27;;;1.70;;
37299;SDS011;23184;51.902;12.836;2022-07-29T02:16:24;4.68;;;2.10;;
37299;SDS011;23184;51.902;12.836;2022-07-29T02:18:53;6.30;;;1.88;;
37299;SDS011;23184;51.902;12.836;2022-07-29T02:21:23;4.70;;;1.80;;
37299;SDS011;23184;51.902;12.836;2022-07-29T02:23:51;6.80;;;2.10;;
37299;SDS011;23184;51.902;12.836;2022-07-29T02:26:19;4.60;;;1.98;;
37299;SDS011;23184;51.902;12.836;2022-07-29T02:28:48;4.90;;;2.10;;
37299;SDS011;23184;51.902;12.836;2022-07-29T02:31:16;8.07;;;2.30;;
37299;SDS011;23184;51.902;12.836;2022-07-29T02:33:45;5.32;;;2.05;;
37299;SDS011;23184;51.902;12.836;2022-07-29T02:36:13;5.63;;;2.05;;
37299;SDS011;23184;51.902;12.836;2022-07-29T02:38:39;3.78;;;2.00;;
37299;SDS011;23184;51.902;12.836;2022-07-29T02:41:17;4.13;;;2.10;;
37299;SDS011;23184;51.902;12.836;2022-07-29T02:43:56;7.65;;;2.40;;
37299;SDS011;23184;51.902;12.836;2022-07-29T02:46:30;9.18;;;2.38;;
37299;SDS011;23184;51.902;12.836;2022-07-29T02:48:59;10.25;;;2.40;;
37299;SDS011;23184;51.902;12.836;2022-07-29T02:51:41;6.95;;;2.40;;
37299;SDS011;23184;51.902;12.836;2022-07-29T02:54:10;5.47;;;2.20;;
37299;SDS011;23184;51.902;12.836;2022-07-29T02:56:43;6.40;;;2.25;;
37299;SDS011;23184;51.902;12.836;2022-07-29T02:59:10;4.78;;;2.30;;
37299;SDS011;23184;51.902;12.836;2022-07-29T03:01:39;8.25;;;2.42;;
37299;SDS011;23184;51.902;12.836;2022-07-29T03:04:07;4.60;;;2.38;;
37299;SDS011;23184;51.902;12.836;2022-07-29T03:06:34;5.93;;;2.45;;
37299;SDS011;23184;51.902;12.836;2022-07-29T03:09:02;8.90;;;2.40;;
37299;SDS011;23184;51.902;12.836;2022-07-29T03:11:28;5.43;;;2.88;;
37299;SDS011;23184;51.902;12.836;2022-07-29T03:13:54;5.30;;;2.40;;
37299;SDS011;23184;51.902;12.836;2022-07-29T03:16:20;6.13;;;2.50;;
37299;SDS011;23184;51.902;12.836;2022-07-29T03:18:48;8.65;;;2.90;;
37299;SDS011;23184;51.902;12.836;2022-07-29T03:21:14;6.90;;;2.58;;
37299;SDS011;23184;51.902;12.836;2022-07-29T03:23:43;6.60;;;2.80;;
37299;SDS011;23184;51.902;12.836;2022-07-29T03:26:10;10.20;;;2.80;;
37299;SDS011;23184;51.902;12.836;2022-07-29T03:28:35;9.13;;;2.90;;
37299;SDS011;23184;51.902;12.836;2022-07-29T03:31:01;9.02;;;2.92;;
37299;SDS011;23184;51.902;12.836;2022-07-29T03:33:26;4.88;;;2.40;;
37299;SDS011;23184;51.902;12.836;2022-07-29T03:35:53;9.32;;;2.83;;
37299;SDS011;23184;51.902;12.836;2022-07-29T03:38:19;11.93;;;3.17;;
37299;SDS011;23184;51.902;12.836;2022-07-29T03:40:49;7.18;;;2.85;;
37299;SDS011;23184;51.902;12.836;2022-07-29T03:43:18;6.32;;;3.42;;
37299;SDS011;23184;51.902;12.836;2022-07-29T03:45:47;9.18;;;2.67;;
37299;SDS011;23184;51.902;12.836;2022-07-29T03:48:15;9.18;;;3.33;;
37299;SDS011;23184;51.902;12.836;2022-07-29T03:50:44;6.00;;;2.53;;
37299;SDS011;23184;51.902;12.836;2022-07-29T03:53:09;6.53;;;2.70;;
37299;SDS011;23184;51.902;12.836;2022-07-29T03:55:36;6.60;;;2.75;;
37299;SDS011;23184;51.902;12.836;2022-07-29T03:58:06;6.43;;;3.00;;
37299;SDS011;23184;51.902;12.836;2022-07-29T04:00:33;8.27;;;3.03;;
37299;SDS011;23184;51.902;12.836;2022-07-29T04:02:59;7.45;;;2.95;;
37299;SDS011;23184;51.902;12.836;2022-07-29T04:05:26;8.25;;;3.35;;
37299;SDS011;23184;51.902;12.836;2022-07-29T04:07:51;9.90;;;2.97;;
37299;SDS011;23184;51.902;12.836;2022-07-29T04:10:18;7.00;;;2.80;;
37299;SDS011;23184;51.902;12.836;2022-07-29T04:12:44;6.95;;;2.92;;
37299;SDS011;23184;51.902;12.836;2022-07-29T04:15:10;6.15;;;2.80;;
37299;SDS011;23184;51.902;12.836;2022-07-29T04:17:36;7.05;;;2.85;;
37299;SDS011;23184;51.902;12.836;2022-07-29T04:20:02;9.30;;;3.15;;
37299;SDS011;23184;51.902;12.836;2022-07-29T04:22:28;6.35;;;2.95;;
37299;SDS011;23184;51.902;12.836;2022-07-29T04:24:54;6.90;;;3.28;;
37299;SDS011;23184;51.902;12.836;2022-07-29T04:27:19;6.82;;;3.40;;
37299;SDS011;23184;51.902;12.836;2022-07-29T04:29:44;8.32;;;2.92;;
37299;SDS011;23184;51.902;12.836;2022-07-29T04:32:10;7.97;;;3.03;;
37299;SDS011;23184;51.902;12.836;2022-07-29T04:34:35;8.23;;;2.80;;
37299;SDS011;23184;51.902;12.836;2022-07-29T04:37:01;6.80;;;3.28;;
37299;SDS011;23184;51.902;12.836;2022-07-29T04:39:26;7.72;;;3.70;;
37299;SDS011;23184;51.902;12.836;2022-07-29T04:41:52;6.32;;;3.53;;
37299;SDS011;23184;51.902;12.836;2022-07-29T04:44:17;5.85;;;3.10;;
37299;SDS011;23184;51.902;12.836;2022-07-29T04:46:43;5.97;;;3.38;;
37299;SDS011;23184;51.902;12.836;2022-07-29T04:49:08;10.25;;;3.45;;
37299;SDS011;23184;51.902;12.836;2022-07-29T04:51:34;6.28;;;3.17;;
37299;SDS011;23184;51.902;12.836;2022-07-29T04:53:59;6.85;;;3.38;;
37299;SDS011;23184;51.902;12.836;2022-07-29T04:56:25;9.95;;;3.63;;
37299;SDS011;23184;51.902;12.836;2022-07-29T04:58:51;9.88;;;3.53;;
37299;SDS011;23184;51.902;12.836;2022-07-29T05:01:17;6.85;;;3.00;;
37299;SDS011;23184;51.902;12.836;2022-07-29T05:03:43;9.55;;;3.30;;
37299;SDS011;23184;51.902;12.836;2022-07-29T05:06:09;9.70;;;3.50;;
37299;SDS011;23184;51.902;12.836;2022-07-29T05:08:34;5.43;;;3.33;;
37299;SDS011;23184;51.902;12.836;2022-07-29T05:10:59;7.10;;;2.97;;
37299;SDS011;23184;51.902;12.836;2022-07-29T05:13:25;6.03;;;3.13;;
37299;SDS011;23184;51.902;12.836;2022-07-29T05:15:50;6.97;;;3.30;;
37299;SDS011;23184;51.902;12.836;2022-07-29T05:18:16;7.25;;;3.08;;
37299;SDS011;23184;51.902;12.836;2022-07-29T05:20:41;5.82;;;3.67;;
37299;SDS011;23184;51.902;12.836;2022-07-29T05:23:07;6.80;;;3.33;;
37299;SDS011;23184;51.902;12.836;2022-07-29T05:25:32;6.93;;;3.22;;
37299;SDS011;23184;51.902;12.836;2022-07-29T05:27:58;5.70;;;3.03;;
37299;SDS011;23184;51.902;12.836;2022-07-29T05:30:23;9.65;;;3.22;;
37299;SDS011;23184;51.902;12.836;2022-07-29T05:32:49;4.50;;;3.10;;
37299;SDS011;23184;51.902;12.836;2022-07-29T05:35:15;15.70;;;3.97;;
37299;SDS011;23184;51.902;12.836;2022-07-29T05:37:41;6.97;;;3.50;;
37299;SDS011;23184;51.902;12.836;2022-07-29T05:40:07;9.13;;;3.17;;
37299;SDS011;23184;51.902;12.836;2022-07-29T05:42:33;6.15;;;3.35;;
37299;SDS011;23184;51.902;12.836;2022-07-29T05:44:59;8.07;;;3.20;;
37299;SDS011;23184;51.902;12.836;2022-07-29T05:47:25;7.05;;;3.58;;
37299;SDS011;23184;51.902;12.836;2022-07-29T05:49:51;8.20;;;3.50;;
37299;SDS011;23184;51.902;12.836;2022-07-29T05:52:16;6.43;;;3.47;;
37299;SDS011;23184;51.902;12.836;2022-07-29T05:54:42;7.53;;;2.92;;
37299;SDS011;23184;51.902;12.836;2022-07-29T05:57:08;5.82;;;2.83;;
37299;SDS011;23184;51.902;12.836;2022-07-29T05:59:39;6.85;;;3.00;;
37299;SDS011;23184;51.902;12.836;2022-07-29T06:02:05;7.65;;;3.08;;
37299;SDS011;23184;51.902;12.836;2022-07-29T06:04:31;6.80;;;3.33;;
37299;SDS011;23184;51.902;12.836;2022-07-29T06:06:56;9.93;;;3.60;;
37299;SDS011;23184;51.902;12.836;2022-07-29T06:09:22;6.80;;;2.83;;
37299;SDS011;23184;51.902;12.836;2022-07-29T06:11:48;6.15;;;2.90;;
37299;SDS011;23184;51.902;12.836;2022-07-29T06:14:13;8.73;;;3.28;;
37299;SDS011;23184;51.902;12.836;2022-07-29T06:16:39;7.00;;;3.85;;
37299;SDS011;23184;51.902;12.836;2022-07-29T06:19:04;8.00;;;3.20;;
37299;SDS011;23184;51.902;12.836;2022-07-29T06:21:30;6.43;;;2.67;;
37299;SDS011;23184;51.902;12.836;2022-07-29T06:23:55;7.63;;;3.50;;
37299;SDS011;23184;51.902;12.836;2022-07-29T06:26:21;5.40;;;2.80;;
37299;SDS011;23184;51.902;12.836;2022-07-29T06:28:47;9.05;;;3.22;;
37299;SDS011;23184;51.902;12.836;2022-07-29T06:31:13;7.72;;;3.10;;
37299;SDS011;23184;51.902;12.836;2022-07-29T06:33:39;10.57;;;2.95;;
37299;SDS011;23184;51.902;12.836;2022-07-29T06:36:04;7.25;;;2.42;;
37299;SDS011;23184;51.902;12.836;2022-07-29T06:38:30;7.05;;;2.75;;
37299;SDS011;23184;51.902;12.836;2022-07-29T06:40:56;10.00;;;2.72;;
37299;SDS011;23184;51.902;12.836;2022-07-29T06:43:24;7.95;;;2.85;;
37299;SDS011;23184;51.902;12.836;2022-07-29T06:45:56;5.10;;;2.67;;
37299;SDS011;23184;51.902;12.836;2022-07-29T06:48:23;6.55;;;2.55;;
37299;SDS011;23184;51.902;12.836;2022-07-29T06:50:48;7.88;;;2.72;;
37299;SDS011;23184;51.902;12.836;2022-07-29T06:53:14;8.43;;;3.28;;
37299;SDS011;23184;51.902;12.836;2022-07-29T06:55:39;8.50;;;2.97;;
37299;SDS011;23184;51.902;12.836;2022-07-29T06:58:05;11.43;;;2.60;;
37299;SDS011;23184;51.902;12.836;2022-07-29T07:00:31;6.40;;;2.40;;
37299;SDS011;23184;51.902;12.836;2022-07-29T07:02:57;10.43;;;2.55;;
37299;SDS011;23184;51.902;12.836;2022-07-29T07:05:22;5.70;;;2.65;;
37299;SDS011;23184;51.902;12.836;2022-07-29T07:07:48;6.70;;;2.58;;
37299;SDS011;23184;51.902;12.836;2022-07-29T07:10:13;6.53;;;2.63;;
37299;SDS011;23184;51.902;12.836;2022-07-29T07:12:39;10.35;;;2.95;;
37299;SDS011;23184;51.902;12.836;2022-07-29T07:15:05;6.72;;;2.60;;
37299;SDS011;23184;51.902;12.836;2022-07-29T07:17:31;7.10;;;2.45;;
37299;SDS011;23184;51.902;12.836;2022-07-29T07:19:56;6.80;;;2.80;;
37299;SDS011;23184;51.902;12.836;2022-07-29T07:22:22;11.30;;;2.78;;
37299;SDS011;23184;51.902;12.836;2022-07-29T07:24:47;11.43;;;2.58;;
37299;SDS011;23184;51.902;12.836;2022-07-29T07:27:13;10.32;;;2.72;;
37299;SDS011;23184;51.902;12.836;2022-07-29T07:29:38;4.20;;;2.05;;
37299;SDS011;23184;51.902;12.836;2022-07-29T07:32:06;8.52;;;2.38;;
37299;SDS011;23184;51.902;12.836;2022-07-29T07:34:31;5.90;;;2.15;;
37299;SDS011;23184;51.902;12.836;2022-07-29T07:36:57;8.93;;;2.25;;
37299;SDS011;23184;51.902;12.836;2022-07-29T07:39:23;9.23;;;2.42;;
37299;SDS011;23184;51.902;12.836;2022-07-29T07:41:48;8.18;;;2.78;;
37299;SDS011;23184;51.902;12.836;2022-07-29T07:44:14;8.10;;;2.45;;
37299;SDS011;23184;51.902;12.836;2022-07-29T07:46:39;6.78;;;2.30;;
37299;SDS011;23184;51.902;12.836;2022-07-29T07:49:05;7.00;;;2.38;;
37299;SDS011;23184;51.902;12.836;2022-07-29T07:51:30;5.95;;;2.17;;
37299;SDS011;23184;51.902;12.836;2022-07-29T07:53:56;7.40;;;2.45;;
37299;SDS011;23184;51.902;12.836;2022-07-29T07:56:21;3.83;;;2.08;;
37299;SDS011;23184;51.902;12.836;2022-07-29T07:58:47;7.22;;;2.58;;
37299;SDS011;23184;51.902;12.836;2022-07-29T08:01:12;9.93;;;2.25;;
37299;SDS011;23184;51.902;12.836;2022-07-29T08:03:38;8.98;;;2.75;;
37299;SDS011;23184;51.902;12.836;2022-07-29T08:06:03;6.53;;;2.58;;
37299;SDS011;23184;51.902;12.836;2022-07-29T08:08:29;5.57;;;2.25;;
37299;SDS011;23184;51.902;12.836;2022-07-29T08:10:55;8.73;;;2.40;;
37299;SDS011;23184;51.902;12.836;2022-07-29T08:13:22;11.80;;;2.20;;
37299;SDS011;23184;51.902;12.836;2022-07-29T08:15:50;9.60;;;1.88;;
37299;SDS011;23184;51.902;12.836;2022-07-29T08:18:27;8.90;;;2.15;;
37299;SDS011;23184;51.902;12.836;2022-07-29T08:20:53;9.70;;;2.20;;
37299;SDS011;23184;51.902;12.836;2022-07-29T08:23:20;6.93;;;2.28;;
37299;SDS011;23184;51.902;12.836;2022-07-29T08:25:46;6.50;;;2.00;;
37299;SDS011;23184;51.902;12.836;2022-07-29T08:28:11;4.28;;;2.20;;
37299;SDS011;23184;51.902;12.836;2022-07-29T08:30:37;9.40;;;2.35;;
37299;SDS011;23184;51.902;12.836;2022-07-29T08:33:03;5.47;;;2.10;;
37299;SDS011;23184;51.902;12.836;2022-07-29T08:35:29;9.48;;;2.42;;
37299;SDS011;23184;51.902;12.836;2022-07-29T08:37:54;8.65;;;2.13;;
37299;SDS011;23184;51.902;12.836;2022-07-29T08:40:21;4.55;;;2.05;;
37299;SDS011;23184;51.902;12.836;2022-07-29T08:42:48;8.10;;;1.95;;
37299;SDS011;23184;51.902;12.836;2022-07-29T08:45:14;6.22;;;2.10;;
37299;SDS011;23184;51.902;12.836;2022-07-29T08:47:40;5.32;;;1.98;;
37299;SDS011;23184;51.902;12.836;2022-07-29T08:50:06;4.60;;;2.10;;
37299;SDS011;23184;51.902;12.836;2022-07-29T08:52:35;6.55;;;2.20;;
37299;SDS011;23184;51.902;12.836;2022-07-29T08:55:02;7.93;;;2.28;;
37299;SDS011;23184;51.902;12.836;2022-07-29T08:57:28;4.30;;;1.92;;
37299;SDS011;23184;51.902;12.836;2022-07-29T08:59:55;7.07;;;2.05;;
37299;SDS011;23184;51.902;12.836;2022-07-29T09:02:24;4.97;;;2.05;;
37299;SDS011;23184;51.902;12.836;2022-07-29T09:04:53;4.85;;;1.60;;
37299;SDS011;23184;51.902;12.836;2022-07-29T09:07:19;7.13;;;1.95;;
37299;SDS011;23184;51.902;12.836;2022-07-29T09:09:45;4.00;;;1.85;;
37299;SDS011;23184;51.902;12.836;2022-07-29T09:12:11;5.55;;;2.05;;
37299;SDS011;23184;51.902;12.836;2022-07-29T09:14:40;10.80;;;2.15;;
37299;SDS011;23184;51.902;12.836;2022-07-29T09:17:06;6.00;;;1.98;;
37299;SDS011;23184;51.902;12.836;2022-07-29T09:19:33;4.65;;;1.80;;
37299;SDS011;23184;51.902;12.836;2022-07-29T09:22:00;9.32;;;1.77;;
37299;SDS011;23184;51.902;12.836;2022-07-29T09:24:28;4.72;;;1.88;;
37299;SDS011;23184;51.902;12.836;2022-07-29T09:27:21;5.80;;;1.92;;
37299;SDS011;23184;51.902;12.836;2022-07-29T09:32:29;3.72;;;2.08;;
37299;SDS011;23184;51.902;12.836;2022-07-29T09:35:13;7.35;;;2.42;;
37299;SDS011;23184;51.902;12.836;2022-07-29T09:37:40;4.97;;;1.95;;
37299;SDS011;23184;51.902;12.836;2022-07-29T09:40:12;19.92;;;2.47;;
37299;SDS011;23184;51.902;12.836;2022-07-29T09:42:40;6.05;;;1.88;;
37299;SDS011;23184;51.902;12.836;2022-07-29T09:45:06;6.35;;;1.73;;
37299;SDS011;23184;51.902;12.836;2022-07-29T09:47:43;8.07;;;1.80;;
37299;SDS011;23184;51.902;12.836;2022-07-29T09:50:10;7.45;;;2.40;;
37299;SDS011;23184;51.902;12.836;2022-07-29T09:52:46;6.68;;;2.25;;
37299;SDS011;23184;51.902;12.836;2022-07-29T09:55:13;39.88;;;4.88;;
37299;SDS011;23184;51.902;12.836;2022-07-29T09:57:39;31.60;;;4.10;;
37299;SDS011;23184;51.902;12.836;2022-07-29T10:00:06;9.05;;;2.08;;
37299;SDS011;23184;51.902;12.836;2022-07-29T10:02:34;4.70;;;2.08;;
37299;SDS011;23184;51.902;12.836;2022-07-29T10:05:02;6.57;;;1.75;;
37299;SDS011;23184;51.902;12.836;2022-07-29T10:07:52;5.30;;;1.80;;
37299;SDS011;23184;51.902;12.836;2022-07-29T10:10:20;7.82;;;2.40;;
37299;SDS011;23184;51.902;12.836;2022-07-29T10:13:12;19.67;;;2.50;;
37299;SDS011;23184;51.902;12.836;2022-07-29T10:15:38;5.05;;;1.83;;
37299;SDS011;23184;51.902;12.836;2022-07-29T10:18:11;7.68;;;1.80;;
37299;SDS011;23184;51.902;12.836;2022-07-29T10:20:38;6.15;;;1.92;;
37299;SDS011;23184;51.902;12.836;2022-07-29T10:23:04;4.90;;;1.85;;
37299;SDS011;23184;51.902;12.836;2022-07-29T10:25:31;8.23;;;2.60;;
37299;SDS011;23184;51.902;12.836;2022-07-29T10:27:56;3.65;;;1.88;;
37299;SDS011;23184;51.902;12.836;2022-07-29T10:30:23;8.65;;;2.30;;
37299;SDS011;23184;51.902;12.836;2022-07-29T10:35:39;8.13;;;1.85;;
37299;SDS011;23184;51.902;12.836;2022-07-29T10:38:37;5.18;;;1.90;;
37299;SDS011;23184;51.902;12.836;2022-07-29T10:44:28;10.93;;;2.10;;
37299;SDS011;23184;51.902;12.836;2022-07-29T10:46:54;5.60;;;2.20;;
37299;SDS011;23184;51.902;12.836;2022-07-29T10:49:21;4.30;;;2.00;;
37299;SDS011;23184;51.902;12.836;2022-07-29T10:51:51;8.75;;;2.00;;
37299;SDS011;23184;51.902;12.836;2022-07-29T10:59:51;6.47;;;2.10;;
37299;SDS011;23184;51.902;12.836;2022-07-29T11:05:10;7.53;;;2.05;;
37299;SDS011;23184;51.902;12.836;2022-07-29T11:10:34;5.82;;;2.25;;
37299;SDS011;23184;51.902;12.836;2022-07-29T11:13:00;5.18;;;2.00;;
37299;SDS011;23184;51.902;12.836;2022-07-29T11:15:25;3.33;;;1.80;;
37299;SDS011;23184;51.902;12.836;2022-07-29T11:20:36;4.82;;;1.88;;
37299;SDS011;23184;51.902;12.836;2022-07-29T11:23:19;5.90;;;1.80;;
37299;SDS011;23184;51.902;12.836;2022-07-29T11:39:32;5.65;;;2.28;;
37299;SDS011;23184;51.902;12.836;2022-07-29T11:42:36;6.38;;;2.08;;
37299;SDS011;23184;51.902;12.836;2022-07-29T11:47:39;5.63;;;2.20;;
37299;SDS011;23184;51.902;12.836;2022-07-29T11:50:08;6.32;;;2.13;;
37299;SDS011;23184;51.902;12.836;2022-07-29T11:52:36;16.50;;;2.60;;
37299;SDS011;23184;51.902;12.836;2022-07-29T11:55:08;6.25;;;1.90;;
37299;SDS011;23184;51.902;12.836;2022-07-29T11:57:35;9.82;;;2.03;;
37299;SDS011;23184;51.902;12.836;2022-07-29T12:00:01;6.78;;;1.90;;
37299;SDS011;23184;51.902;12.836;2022-07-29T12:02:42;9.57;;;2.30;;
37299;SDS011;23184;51.902;12.836;2022-07-29T12:05:09;5.95;;;1.95;;
37299;SDS011;23184;51.902;12.836;2022-07-29T12:07:38;5.40;;;2.00;;
37299;SDS011;23184;51.902;12.836;2022-07-29T12:10:05;4.35;;;1.92;;
37299;SDS011;23184;51.902;12.836;2022-07-29T12:12:31;7.05;;;1.98;;
37299;SDS011;23184;51.902;12.836;2022-07-29T12:14:57;10.55;;;2.50;;
37299;SDS011;23184;51.902;12.836;2022-07-29T12:17:29;3.78;;;1.85;;
37299;SDS011;23184;51.902;12.836;2022-07-29T12:20:00;3.38;;;1.70;;
37299;SDS011;23184;51.902;12.836;2022-07-29T12:22:38;5.80;;;1.90;;
37299;SDS011;23184;51.902;12.836;2022-07-29T12:25:09;7.38;;;2.20;;
37299;SDS011;23184;51.902;12.836;2022-07-29T12:27:36;6.35;;;2.22;;
37299;SDS011;23184;51.902;12.836;2022-07-29T12:32:40;5.18;;;2.13;;
37299;SDS011;23184;51.902;12.836;2022-07-29T12:35:09;7.45;;;2.30;;
37299;SDS011;23184;51.902;12.836;2022-07-29T12:37:40;6.15;;;2.33;;
37299;SDS011;23184;51.902;12.836;2022-07-29T12:40:07;5.93;;;1.90;;
37299;SDS011;23184;51.902;12.836;2022-07-29T12:42:34;6.68;;;1.90;;
37299;SDS011;23184;51.902;12.836;2022-07-29T12:45:00;7.68;;;2.00;;
37299;SDS011;23184;51.902;12.836;2022-07-29T12:47:26;7.28;;;2.30;;
37299;SDS011;23184;51.902;12.836;2022-07-29T12:50:12;6.82;;;2.42;;
37299;SDS011;23184;51.902;12.836;2022-07-29T12:52:42;7.88;;;2.22;;
37299;SDS011;23184;51.902;12.836;2022-07-29T12:55:09;8.32;;;2.17;;
37299;SDS011;23184;51.902;12.836;2022-07-29T12:57:47;6.90;;;2.20;;
37299;SDS011;23184;51.902;12.836;2022-07-29T13:00:15;6.43;;;2.05;;
37299;SDS011;23184;51.902;12.836;2022-07-29T13:02:42;4.38;;;1.88;;
37299;SDS011;23184;51.902;12.836;2022-07-29T13:05:09;3.20;;;1.80;;
37299;SDS011;23184;51.902;12.836;2022-07-29T13:07:36;4.97;;;2.00;;
37299;SDS011;23184;51.902;12.836;2022-07-29T13:10:12;6.18;;;1.90;;
37299;SDS011;23184;51.902;12.836;2022-07-29T13:12:54;9.88;;;2.10;;
37299;SDS011;23184;51.902;12.836;2022-07-29T13:15:39;4.65;;;2.03;;
37299;SDS011;23184;51.902;12.836;2022-07-29T13:18:28;5.40;;;1.83;;
37299;SDS011;23184;51.902;12.836;2022-07-29T13:21:09;6.75;;;1.77;;
37299;SDS011;23184;51.902;12.836;2022-07-29T13:23:37;4.28;;;1.90;;
37299;SDS011;23184;51.902;12.836;2022-07-29T13:26:06;5.60;;;2.10;;
37299;SDS011;23184;51.902;12.836;2022-07-29T13:28:36;4.40;;;1.80;;
37299;SDS011;23184;51.902;12.836;2022-07-29T13:31:02;8.10;;;2.00;;
37299;SDS011;23184;51.902;12.836;2022-07-29T13:33:29;6.18;;;2.22;;
37299;SDS011;23184;51.902;12.836;2022-07-29T13:35:55;3.90;;;1.77;;
37299;SDS011;23184;51.902;12.836;2022-07-29T13:38:20;7.80;;;2.05;;
37299;SDS011;23184;51.902;12.836;2022-07-29T13:40:46;8.02;;;1.95;;
37299;SDS011;23184;51.902;12.836;2022-07-29T13:43:12;8.30;;;2.05;;
37299;SDS011;23184;51.902;12.836;2022-07-29T13:45:37;6.50;;;1.83;;
37299;SDS011;23184;51.902;12.836;2022-07-29T13:48:03;5.38;;;1.70;;
37299;SDS011;23184;51.902;12.836;2022-07-29T13:50:29;7.13;;;2.15;;
37299;SDS011;23184;51.902;12.836;2022-07-29T13:52:55;11.60;;;2.30;;
37299;SDS011;23184;51.902;12.836;2022-07-29T13:55:20;4.03;;;2.00;;
37299;SDS011;23184;51.902;12.836;2022-07-29T13:57:46;4.35;;;1.95;;
37299;SDS011;23184;51.902;12.836;2022-07-29T14:00:12;4.95;;;2.05;;
37299;SDS011;23184;51.902;12.836;2022-07-29T14:02:38;6.65;;;2.20;;
37299;SDS011;23184;51.902;12.836;2022-07-29T14:05:05;4.85;;;2.17;;
37299;SDS011;23184;51.902;12.836;2022-07-29T14:07:31;11.95;;;2.15;;
37299;SDS011;23184;51.902;12.836;2022-07-29T14:09:56;4.63;;;1.80;;
37299;SDS011;23184;51.902;12.836;2022-07-29T14:12:22;4.90;;;1.90;;
37299;SDS011;23184;51.902;12.836;2022-07-29T14:14:48;8.77;;;2.03;;
37299;SDS011;23184;51.902;12.836;2022-07-29T14:17:16;5.10;;;1.80;;
37299;SDS011;23184;51.902;12.836;2022-07-29T14:19:42;9.00;;;1.95;;
37299;SDS011;23184;51.902;12.836;2022-07-29T14:22:07;3.65;;;2.00;;
37299;SDS011;23184;51.902;12.836;2022-07-29T14:24:34;8.70;;;2.30;;
37299;SDS011;23184;51.902;12.836;2022-07-29T14:27:00;3.88;;;2.20;;
37299;SDS011;23184;51.902;12.836;2022-07-29T14:29:25;5.25;;;2.22;;
37299;SDS011;23184;51.902;12.836;2022-07-29T14:31:51;5.18;;;2.13;;
37299;SDS011;23184;51.902;12.836;2022-07-29T14:34:17;5.45;;;2.03;;
37299;SDS011;23184;51.902;12.836;2022-07-29T14:36:43;4.32;;;2.03;;
37299;SDS011;23184;51.902;12.836;2022-07-29T14:39:08;8.10;;;2.17;;
37299;SDS011;23184;51.902;12.836;2022-07-29T14:41:34;5.82;;;2.55;;
37299;SDS011;23184;51.902;12.836;2022-07-29T14:43:59;3.92;;;1.90;;
37299;SDS011;23184;51.902;12.836;2022-07-29T14:46:28;2.72;;;2.00;;
37299;SDS011;23184;51.902;12.836;2022-07-29T14:48:53;6.68;;;2.30;;
37299;SDS011;23184;51.902;12.836;2022-07-29T14:51:19;4.07;;;2.03;;
37299;SDS011;23184;51.902;12.836;2022-07-29T14:53:44;4.28;;;2.05;;
37299;SDS011;23184;51.902;12.836;2022-07-29T14:56:10;12.88;;;2.80;;
37299;SDS011;23184;51.902;12.836;2022-07-29T14:58:36;5.55;;;2.38;;
37299;SDS011;23184;51.902;12.836;2022-07-29T15:01:01;8.85;;;2.40;;
37299;SDS011;23184;51.902;12.836;2022-07-29T15:03:28;4.05;;;1.92;;
37299;SDS011;23184;51.902;12.836;2022-07-29T15:05:54;7.47;;;2.30;;
37299;SDS011;23184;51.902;12.836;2022-07-29T15:08:20;4.85;;;2.13;;
37299;SDS011;23184;51.902;12.836;2022-07-29T15:10:45;7.65;;;2.25;;
37299;SDS011;23184;51.902;12.836;2022-07-29T15:13:11;5.38;;;2.15;;
37299;SDS011;23184;51.902;12.836;2022-07-29T15:15:36;4.70;;;2.15;;
37299;SDS011;23184;51.902;12.836;2022-07-29T15:18:02;6.28;;;2.42;;
37299;SDS011;23184;51.902;12.836;2022-07-29T15:20:28;5.07;;;2.60;;
37299;SDS011;23184;51.902;12.836;2022-07-29T15:22:54;3.45;;;2.00;;
37299;SDS011;23184;51.902;12.836;2022-07-29T15:25:20;5.63;;;2.63;;